Time;durP1;ratioP1;P1;durP2;ratioP2;P2;SDS_P1;SDS_P2;PMS_P1;PMS_P2;Temp;Humidity;BMP_temperature;BMP_pressure;BME280_temperature;BME280_humidity;BME280_pressure;Samples;Min_cycle;Max_cycle;Signal;HPM_P1;HPM_P2
2022/10/23 00:02:36;;;;;;;24.20;17.80;;;;;;;12.99;100.00;98869.55;2092739;85;21015;-92
2022/10/23 00:05:36;;;;;;;31.30;20.17;;;;;;;13.01;100.00;98875.41;2124609;84;21531;-92
2022/10/23 00:08:37;;;;;;;30.15;21.68;;;;;;;13.00;100.00;98874.60;2109610;84;21542;-92
2022/10/23 00:11:38;;;;;;;31.30;20.77;;;;;;;13.01;100.00;98877.54;2093097;85;21024;-91
2022/10/23 00:14:39;;;;;;;30.48;20.55;;;;;;;13.04;100.00;98871.08;2094537;85;20964;-87
2022/10/23 00:17:40;;;;;;;33.25;20.48;;;;;;;13.03;100.00;98876.84;2095183;85;20995;-87
2022/10/23 00:20:40;;;;;;;29.15;19.92;;;;;;;13.04;100.00;98879.77;2128906;84;20976;-90
2022/10/23 00:23:41;;;;;;;32.90;20.88;;;;;;;13.02;100.00;98884.41;2102604;84;21316;-92
2022/10/23 00:26:42;;;;;;;27.90;20.15;;;;;;;13.02;100.00;98892.80;2130417;84;21054;-91
2022/10/23 00:29:42;;;;;;;27.50;19.05;;;;;;;13.01;100.00;98892.50;2132000;84;20940;-90
2022/10/23 00:32:43;;;;;;;30.30;19.60;;;;;;;13.00;100.00;98900.08;2133904;81;21047;-87
2022/10/23 00:35:44;;;;;;;27.25;19.62;;;;;;;13.00;100.00;98903.52;2131008;84;21534;-91
2022/10/23 00:38:44;;;;;;;31.73;19.60;;;;;;;13.00;100.00;98901.39;2133410;82;21010;-91
2022/10/23 00:41:45;;;;;;;27.73;18.98;;;;;;;12.97;100.00;98907.81;2135949;83;21042;-89
2022/10/23 00:44:46;;;;;;;30.27;20.72;;;;;;;12.98;100.00;98915.20;2138251;83;20979;-88
2022/10/23 00:47:46;;;;;;;28.73;20.23;;;;;;;12.98;100.00;98914.70;2137929;83;20947;-87
2022/10/23 00:50:47;;;;;;;27.05;18.62;;;;;;;12.98;100.00;98909.94;2125805;83;21113;-87
2022/10/23 00:53:48;;;;;;;31.30;19.48;;;;;;;12.97;100.00;98909.63;2138180;83;21013;-87
2022/10/23 00:56:49;;;;;;;27.13;19.48;;;;;;;12.97;100.00;98913.07;2138043;83;21006;-90
2022/10/23 00:59:50;;;;;;;25.50;18.60;;;;;;;13.00;100.00;98914.03;2149405;82;21541;-91
2022/10/23 01:02:50;;;;;;;29.57;19.25;;;;;;;13.01;100.00;98913.02;2115403;83;20935;-90
2022/10/23 01:05:51;;;;;;;31.57;19.23;;;;;;;13.01;100.00;98920.09;2119905;83;20975;-90
2022/10/23 01:08:52;;;;;;;24.87;18.95;;;;;;;13.00;100.00;98917.97;2133931;83;21081;-91
2022/10/23 01:11:53;;;;;;;25.12;18.12;;;;;;;13.00;100.00;98923.23;2135482;83;21054;-93
2022/10/23 01:14:54;;;;;;;25.68;18.67;;;;;;;12.98;100.00;98921.27;2129895;83;21569;-92
2022/10/23 01:17:54;;;;;;;23.00;17.67;;;;;;;12.97;100.00;98922.27;2135474;83;20987;-92
2022/10/23 01:20:55;;;;;;;25.80;18.45;;;;;;;12.96;100.00;98925.91;2135525;83;21003;-91
2022/10/23 01:23:56;;;;;;;27.05;19.00;;;;;;;12.95;100.00;98924.79;2135574;83;21010;-89
2022/10/23 01:26:56;;;;;;;28.75;19.60;;;;;;;12.92;100.00;98928.61;2135898;83;20982;-90
2022/10/23 01:29:58;;;;;;;29.23;20.65;;;;;;;12.94;100.00;98927.11;2135293;83;21010;-87
2022/10/23 01:32:59;;;;;;;25.65;17.80;;;;;;;12.95;100.00;98922.97;2135718;83;21517;-91
2022/10/23 01:35:59;;;;;;;25.72;17.80;;;;;;;12.96;100.00;98920.66;2135422;83;21014;-93
2022/10/23 01:39:00;;;;;;;30.10;19.57;;;;;;;12.95;100.00;98926.91;2141316;83;21069;-92
2022/10/23 01:42:01;;;;;;;29.60;19.80;;;;;;;12.92;100.00;98924.67;2152032;82;21005;-91
2022/10/23 01:45:01;;;;;;;32.90;20.57;;;;;;;12.93;100.00;98924.17;2173825;82;20994;-87
2022/10/23 01:48:02;;;;;;;29.48;19.65;;;;;;;12.93;100.00;98922.35;2133119;83;21001;-87
2022/10/23 01:51:03;;;;;;;26.93;19.45;;;;;;;12.92;100.00;98923.36;2154110;83;21528;-92
2022/10/23 01:54:04;;;;;;;30.50;21.87;;;;;;;12.94;100.00;98929.73;2151623;83;21036;-91
2022/10/23 01:57:04;;;;;;;26.60;19.82;;;;;;;12.93;100.00;98940.75;2152451;82;20982;-91
2022/10/23 02:00:05;;;;;;;29.67;21.75;;;;;;;12.94;100.00;98928.42;2152476;83;21021;-92
2022/10/23 02:03:06;;;;;;;28.65;19.73;;;;;;;12.95;100.00;98928.73;2152236;82;21072;-91
2022/10/23 02:06:06;;;;;;;26.50;18.70;;;;;;;12.95;100.00;98935.30;2152773;83;20993;-90
2022/10/23 02:09:07;;;;;;;24.98;18.77;;;;;;;12.96;100.00;98936.92;2147875;83;21029;-90
2022/10/23 02:12:08;;;;;;;32.83;20.68;;;;;;;12.93;100.00;98944.69;2152158;83;21061;-90
2022/10/23 02:15:11;;;;;;;24.95;18.05;;;;;;;12.95;100.00;98949.75;2153458;83;20978;-86
2022/10/23 02:18:12;;;;;;;26.20;20.72;;;;;;;12.96;100.00;98951.38;2155698;83;20970;-85
2022/10/23 02:21:12;;;;;;;23.70;18.35;;;;;;;12.95;100.00;98957.64;2154588;83;21008;-91
2022/10/23 02:24:13;;;;;;;24.23;18.25;;;;;;;12.94;100.00;98957.33;2152383;83;21037;-88
2022/10/23 02:27:14;;;;;;;25.45;18.95;;;;;;;12.95;100.00;98958.95;2152080;83;21045;-90
2022/10/23 02:30:15;;;;;;;22.22;18.60;;;;;;;12.93;100.00;98959.14;2153082;83;20970;-89
2022/10/23 02:33:15;;;;;;;26.35;18.23;;;;;;;12.92;100.00;98964.09;2150254;83;21005;-86
2022/10/23 02:36:16;;;;;;;25.40;19.65;;;;;;;12.90;100.00;98957.41;2154183;82;21534;-89
2022/10/23 02:39:17;;;;;;;21.60;17.17;;;;;;;12.91;100.00;98956.41;2145854;83;21114;-89
2022/10/23 02:42:20;;;;;;;21.23;17.60;;;;;;;12.88;100.00;98956.25;2135755;83;21021;-91
2022/10/23 02:45:20;;;;;;;21.30;17.67;;;;;;;12.87;100.00;98955.95;2136379;83;21014;-87
2022/10/23 02:48:21;;;;;;;26.50;18.07;;;;;;;12.81;100.00;98965.41;2137194;83;21580;-89
2022/10/23 02:51:22;;;;;;;26.93;17.85;;;;;;;12.79;100.00;98963.95;2125477;83;21027;-89
2022/10/23 02:54:22;;;;;;;21.82;16.85;;;;;;;12.75;100.00;98969.28;2100291;85;20999;-86
2022/10/23 02:57:23;;;;;;;21.82;16.75;;;;;;;12.71;100.00;98970.17;2130221;83;21057;-86
2022/10/23 03:00:24;;;;;;;26.23;18.23;;;;;;;12.68;100.00;98967.08;2136325;83;21053;-89
2022/10/23 03:03:25;;;;;;;21.33;15.95;;;;;;;12.67;100.00;98972.84;2135876;83;21466;-90
2022/10/23 03:06:25;;;;;;;24.40;16.97;;;;;;;12.66;100.00;98967.27;2135149;83;21604;-91
2022/10/23 03:09:26;;;;;;;25.27;18.37;;;;;;;12.66;100.00;98972.53;2135643;83;21014;-90
2022/10/23 03:12:27;;;;;;;23.27;17.07;;;;;;;12.68;100.00;98974.46;2135685;83;20974;-90
2022/10/23 03:15:27;;;;;;;27.37;18.07;;;;;;;12.69;100.00;98973.95;2135716;83;20991;-90
2022/10/23 03:18:28;;;;;;;18.02;15.55;;;;;;;12.69;100.00;98977.39;2135651;83;20951;-90
2022/10/23 03:21:29;;;;;;;22.45;16.65;;;;;;;12.68;100.00;98974.96;2134694;83;21061;-90
2022/10/23 03:24:30;;;;;;;27.60;17.77;;;;;;;12.62;100.00;98984.89;2135496;83;20974;-90
2022/10/23 03:27:30;;;;;;;19.20;15.63;;;;;;;12.61;100.00;98989.33;2135439;83;20983;-90
2022/10/23 03:30:31;;;;;;;20.57;15.48;;;;;;;12.60;100.00;98992.15;2132136;83;21189;-90
2022/10/23 03:33:32;;;;;;;21.85;16.75;;;;;;;12.58;100.00;98995.47;2148786;83;21506;-91
2022/10/23 03:36:33;;;;;;;26.95;16.50;;;;;;;12.56;100.00;98986.97;2116419;83;21561;-90
2022/10/23 03:39:33;;;;;;;20.02;15.55;;;;;;;12.53;100.00;98995.54;2104909;83;21148;-88
2022/10/23 03:42:34;;;;;;;23.10;17.00;;;;;;;12.53;100.00;98999.98;2152567;83;20985;-89
2022/10/23 03:45:37;;;;;;;21.37;15.72;;;;;;;12.55;100.00;99006.36;2152662;83;21017;-88
2022/10/23 03:48:38;;;;;;;23.92;17.12;;;;;;;12.57;100.00;99009.61;2155235;82;22655;-87
2022/10/23 03:51:42;;;;;;;21.90;16.62;;;;;;;12.58;100.00;99010.73;2151621;83;21014;-89
2022/10/23 03:54:43;;;;;;;25.97;19.00;;;;;;;12.58;100.00;99010.73;2153841;83;21069;-87
2022/10/23 03:57:44;;;;;;;22.05;15.85;;;;;;;12.59;100.00;99019.42;2126668;83;21514;-86
2022/10/23 04:00:45;;;;;;;26.93;18.70;;;;;;;12.58;100.00;99026.98;2153228;83;20978;-88
2022/10/23 04:03:45;;;;;;;22.77;15.95;;;;;;;12.52;100.00;99025.90;2132341;83;21438;-87
2022/10/23 04:06:46;;;;;;;25.50;18.15;;;;;;;12.49;100.00;99028.41;2114625;84;21509;-92
2022/10/23 04:09:47;;;;;;;25.37;18.65;;;;;;;12.45;100.00;99032.41;2114513;84;22156;-90
2022/10/23 04:12:47;;;;;;;19.98;16.50;;;;;;;12.44;100.00;99022.91;2124457;83;21543;-88
2022/10/23 04:15:48;;;;;;;23.77;16.77;;;;;;;12.40;100.00;99028.69;2153738;83;20997;-91
2022/10/23 04:18:49;;;;;;;22.30;16.62;;;;;;;12.35;100.00;99035.82;2151381;83;20965;-85
2022/10/23 04:21:49;;;;;;;22.82;16.32;;;;;;;12.30;100.00;99032.91;2174383;82;20962;-85
2022/10/23 04:24:50;;;;;;;24.20;16.42;;;;;;;12.23;100.00;99034.63;2154090;83;20967;-89
2022/10/23 04:27:51;;;;;;;25.88;17.67;;;;;;;12.17;100.00;99031.44;2153431;83;21359;-91
2022/10/23 04:30:51;;;;;;;26.70;17.07;;;;;;;12.15;100.00;99029.48;2154482;81;21044;-88
2022/10/23 04:33:52;;;;;;;23.80;16.70;;;;;;;12.12;100.00;99030.66;2153219;83;20962;-85
2022/10/23 04:36:53;;;;;;;24.35;17.92;;;;;;;12.12;100.00;99026.72;2154175;82;21112;-89
2022/10/23 04:39:54;;;;;;;24.40;16.12;;;;;;;12.11;100.00;99030.34;2152192;83;21081;-89
2022/10/23 04:42:54;;;;;;;21.90;16.02;;;;;;;12.10;100.00;99027.91;2152340;83;20990;-88
2022/10/23 04:45:55;;;;;;;24.87;16.17;;;;;;;12.05;100.00;99020.56;2140297;83;21013;-91
2022/10/23 04:48:56;;;;;;;22.52;16.48;;;;;;;12.03;100.00;99025.69;2116617;84;20998;-88
2022/10/23 04:51:57;;;;;;;24.70;17.82;;;;;;;12.02;100.00;99020.13;2116844;84;20981;-87
2022/10/23 04:54:57;;;;;;;27.07;17.62;;;;;;;12.00;100.00;99022.94;2115667;84;21089;-88
2022/10/23 04:57:58;;;;;;;32.20;18.15;;;;;;;12.03;100.00;99023.88;2135201;83;21437;-90
2022/10/23 05:00:59;;;;;;;24.92;17.40;;;;;;;12.08;100.00;99020.72;2134335;83;21064;-90
2022/10/23 05:03:59;;;;;;;27.10;17.87;;;;;;;12.12;100.00;99020.16;2146275;83;21066;-89
2022/10/23 05:07:00;;;;;;;26.45;18.17;;;;;;;12.15;100.00;99022.91;2171279;82;20939;-87
2022/10/23 05:10:02;;;;;;;24.47;18.60;;;;;;;12.21;100.00;99023.51;2117680;83;21058;-89
2022/10/23 05:13:03;;;;;;;27.52;19.20;;;;;;;12.24;100.00;99029.20;2114907;83;21122;-90
2022/10/23 05:16:03;;;;;;;30.27;19.27;;;;;;;12.24;100.00;99018.70;2150003;83;21009;-90
2022/10/23 05:19:04;;;;;;;27.60;19.27;;;;;;;12.33;100.00;99033.85;2148938;83;21548;-91
2022/10/23 05:22:05;;;;;;;30.30;19.35;;;;;;;12.35;100.00;99036.32;2171243;82;21102;-93
2022/10/23 05:25:05;;;;;;;31.85;18.48;;;;;;;12.38;100.00;99022.31;2149310;82;21057;-89
2022/10/23 05:28:06;;;;;;;28.32;19.42;;;;;;;12.43;100.00;99026.50;2131453;81;20974;-90
2022/10/23 05:31:07;;;;;;;29.15;18.42;;;;;;;12.45;100.00;99027.66;2166663;81;20994;-92
2022/10/23 05:34:07;;;;;;;34.15;20.10;;;;;;;12.46;100.00;99032.72;2144873;83;21020;-87
2022/10/23 05:37:08;;;;;;;32.80;21.70;;;;;;;12.44;100.00;99028.66;2146792;83;21450;-93
2022/10/23 05:40:09;;;;;;;32.90;21.95;;;;;;;12.48;100.00;99035.16;2144025;83;21004;-94
2022/10/23 05:43:09;;;;;;;35.17;20.97;;;;;;;12.49;100.00;99036.28;2123030;82;21035;-92
2022/10/23 05:46:10;;;;;;;33.78;19.82;;;;;;;12.52;100.00;99041.66;2095317;85;20952;-90
2022/10/23 05:49:15;;;;;;;32.53;19.87;;;;;;;12.55;100.00;99055.76;2115368;84;21094;-90
2022/10/23 05:52:15;;;;;;;33.48;18.95;;;;;;;12.59;100.00;99049.63;2129894;84;21046;-92
2022/10/23 05:55:16;;;;;;;33.95;20.12;;;;;;;12.65;100.00;99062.03;2133165;84;20982;-92
2022/10/23 05:58:17;;;;;;;28.23;16.87;;;;;;;12.64;100.00;99057.28;2131491;84;21064;-88
2022/10/23 06:01:17;;;;;;;30.17;17.20;;;;;;;12.65;100.00;99074.67;2139951;82;21086;-93
2022/10/23 06:04:18;;;;;;;23.67;15.38;;;;;;;12.68;100.00;99073.48;2131884;83;21015;-90
2022/10/23 06:07:21;;;;;;;36.63;21.12;;;;;;;12.68;100.00;99073.48;2128460;84;21040;-87
2022/10/23 06:10:21;;;;;;;38.65;21.40;;;;;;;12.70;100.00;99070.16;2128879;84;21027;-88
2022/10/23 06:13:22;;;;;;;31.23;16.48;;;;;;;12.69;100.00;99071.16;2101572;84;21147;-86
2022/10/23 06:16:26;;;;;;;24.43;14.18;;;;;;;12.71;100.00;99076.57;2100925;84;21035;-87
2022/10/23 06:19:29;;;;;;;30.40;17.65;;;;;;;12.68;100.00;99077.42;2129381;84;20996;-86
2022/10/23 06:22:29;;;;;;;26.87;15.90;;;;;;;12.68;100.00;99081.36;2131975;84;21143;-86
2022/10/23 06:25:30;;;;;;;36.65;21.25;;;;;;;12.67;100.00;99082.36;2103400;84;21719;-84
2022/10/23 06:28:31;;;;;;;25.25;16.35;;;;;;;12.73;100.00;99089.02;2130123;84;21133;-88
2022/10/23 06:31:32;;;;;;;26.87;15.53;;;;;;;12.73;100.00;99089.02;2101673;84;21031;-89
2022/10/23 06:34:32;;;;;;;31.82;15.53;;;;;;;12.80;100.00;99096.95;2130411;84;21023;-94
2022/10/23 06:37:33;;;;;;;30.55;15.23;;;;;;;12.81;100.00;99091.55;2103696;84;21728;-87
2022/10/23 06:40:34;;;;;;;30.80;17.35;;;;;;;12.86;100.00;99095.42;2124036;81;20981;-87
2022/10/23 06:43:34;;;;;;;28.50;17.15;;;;;;;12.89;100.00;99094.53;2111520;83;20942;-90
2022/10/23 06:46:36;;;;;;;26.12;16.55;;;;;;;12.94;100.00;99105.82;2061120;83;21056;-93
2022/10/23 06:49:39;;;;;;;26.52;16.15;;;;;;;12.96;100.00;99105.94;2109383;84;21147;-87
2022/10/23 06:52:43;;;;;;;27.13;15.83;;;;;;;12.99;100.00;99107.41;2109294;84;21048;-91
2022/10/23 06:55:44;;;;;;;27.37;14.40;;;;;;;13.07;100.00;99108.58;2078047;84;21011;-87
2022/10/23 06:58:44;;;;;;;21.75;14.38;;;;;;;13.12;100.00;99106.73;2109130;84;21060;-90
2022/10/23 07:01:45;;;;;;;26.20;16.10;;;;;;;13.15;100.00;99097.14;2110737;84;20997;-91
2022/10/23 07:04:46;;;;;;;30.17;17.37;;;;;;;13.22;100.00;99103.32;2108547;84;21047;-91
2022/10/23 07:07:47;;;;;;;25.02;16.20;;;;;;;13.34;100.00;99103.94;2108670;84;21024;-91
2022/10/23 07:10:48;;;;;;;26.37;16.97;;;;;;;13.52;100.00;99105.32;2080557;84;21075;-92
2022/10/23 07:13:49;;;;;;;25.10;14.45;;;;;;;13.71;100.00;99102.55;2108002;84;21098;-93
2022/10/23 07:16:52;;;;;;;23.05;16.45;;;;;;;13.87;100.00;99100.97;2108000;84;21384;-94
2022/10/23 07:19:52;;;;;;;32.67;15.25;;;;;;;14.01;100.00;99103.20;2108420;84;21628;-95
2022/10/23 07:22:53;;;;;;;21.23;14.68;;;;;;;14.09;100.00;99106.51;2108188;84;20973;-91
2022/10/23 07:25:55;;;;;;;20.95;14.40;;;;;;;14.16;100.00;99108.66;2080356;84;21128;-89
2022/10/23 07:28:56;;;;;;;24.30;15.00;;;;;;;14.18;100.00;99109.80;2107584;84;21573;-91
2022/10/23 07:31:56;;;;;;;20.25;13.25;;;;;;;14.26;100.00;99113.58;2108158;84;21118;-93
2022/10/23 07:34:57;;;;;;;20.85;14.28;;;;;;;14.36;100.00;99108.80;2108386;84;20964;-95
2022/10/23 07:38:01;;;;;;;21.57;14.87;;;;;;;14.46;100.00;99108.48;2108222;84;21225;-90
2022/10/23 07:41:01;;;;;;;21.50;15.25;;;;;;;14.56;100.00;99108.94;2121017;82;21147;-87
2022/10/23 07:44:02;;;;;;;22.70;16.20;;;;;;;14.64;100.00;99112.72;2104073;83;21022;-87
2022/10/23 07:47:03;;;;;;;22.13;16.17;;;;;;;14.75;100.00;99112.67;2134630;83;21069;-93
2022/10/23 07:50:04;;;;;;;24.43;15.95;;;;;;;14.79;100.00;99113.38;2128270;83;21585;-88
2022/10/23 07:53:05;;;;;;;21.10;14.90;;;;;;;14.88;100.00;99117.17;2098828;85;20999;-86
2022/10/23 07:56:07;;;;;;;20.23;14.73;;;;;;;14.93;100.00;99108.17;2101407;83;21057;-89
2022/10/23 07:59:08;;;;;;;18.82;13.78;;;;;;;15.05;100.00;99096.84;2134370;83;21089;-86
2022/10/23 08:02:09;;;;;;;18.90;14.25;;;;;;;15.12;100.00;99100.02;2136069;83;21054;-88
2022/10/23 08:05:09;;;;;;;18.12;14.50;;;;;;;15.12;100.00;99102.14;2136177;83;21053;-90
2022/10/23 08:08:10;;;;;;;23.25;15.60;;;;;;;15.17;100.00;99100.21;2137888;83;21048;-87
2022/10/23 08:11:11;;;;;;;18.57;13.58;;;;;;;15.20;100.00;99105.92;2140694;83;20993;-88
2022/10/23 08:14:12;;;;;;;15.80;13.20;;;;;;;15.24;100.00;99111.59;2146088;83;21012;-88
2022/10/23 08:17:13;;;;;;;15.55;12.88;;;;;;;15.31;100.00;99112.43;2137118;82;20955;-90
2022/10/23 08:20:13;;;;;;;14.07;11.38;;;;;;;15.50;100.00;99105.55;2136133;83;20986;-91
2022/10/23 08:23:15;;;;;;;15.03;11.70;;;;;;;15.69;100.00;99100.83;2135890;83;21045;-89
2022/10/23 08:26:16;;;;;;;16.65;12.73;;;;;;;15.84;100.00;99100.63;2136748;83;21021;-87
2022/10/23 08:29:17;;;;;;;16.93;13.40;;;;;;;16.03;100.00;99089.23;2136843;83;21096;-86
2022/10/23 08:32:18;;;;;;;18.60;12.28;;;;;;;16.19;100.00;99090.64;2135848;83;21051;-89
2022/10/23 08:35:18;;;;;;;15.08;11.05;;;;;;;16.24;100.00;99096.61;2139535;83;20980;-88
2022/10/23 08:38:19;;;;;;;15.58;10.93;;;;;;;16.25;100.00;99097.72;2142477;83;21016;-88
2022/10/23 08:41:20;;;;;;;13.20;10.93;;;;;;;16.29;100.00;99087.05;2115286;83;21064;-86
2022/10/23 08:44:21;;;;;;;12.93;10.08;;;;;;;16.39;100.00;99081.34;2143555;82;21058;-87
2022/10/23 08:47:22;;;;;;;11.12;9.65;;;;;;;16.40;100.00;99077.16;2142398;82;21028;-88
2022/10/23 08:50:22;;;;;;;11.18;9.98;;;;;;;16.42;100.00;99082.23;2142072;82;21005;-89
2022/10/23 08:53:23;;;;;;;12.45;9.83;;;;;;;16.41;100.00;99086.70;2142063;82;21523;-87
2022/10/23 08:56:25;;;;;;;9.18;7.92;;;;;;;16.42;100.00;99088.84;2141985;82;21036;-87
2022/10/23 08:59:27;;;;;;;12.40;8.43;;;;;;;16.44;100.00;99096.85;2129529;84;21526;-89
2022/10/23 09:02:28;;;;;;;10.03;8.63;;;;;;;16.48;100.00;99090.66;2142446;82;21531;-88
2022/10/23 09:05:28;;;;;;;13.03;9.23;;;;;;;16.54;100.00;99095.09;2129949;84;20972;-90
2022/10/23 09:08:29;;;;;;;11.75;8.70;;;;;;;16.65;100.00;99093.14;2142419;83;21551;-89
2022/10/23 09:11:30;;;;;;;9.78;8.33;;;;;;;16.75;100.00;99101.47;2130425;84;21003;-87
2022/10/23 09:14:31;;;;;;;11.90;8.78;;;;;;;16.85;100.00;99101.53;2142329;83;20989;-88
2022/10/23 09:17:31;;;;;;;9.23;8.28;;;;;;;16.85;100.00;99099.70;2129828;83;21008;-89
2022/10/23 09:20:35;;;;;;;12.95;9.45;;;;;;;16.88;100.00;99102.42;2142305;83;20989;-89
2022/10/23 09:23:36;;;;;;;9.83;7.42;;;;;;;16.95;100.00;99105.34;2129730;84;21064;-89
2022/10/23 09:26:38;;;;;;;10.82;8.88;;;;;;;17.00;100.00;99103.38;2142286;83;21004;-88
2022/10/23 09:29:39;;;;;;;8.98;7.17;;;;;;;17.05;100.00;99108.85;2130379;84;22143;-88
2022/10/23 09:32:42;;;;;;;11.12;6.97;;;;;;;17.14;100.00;99117.36;2142122;83;20985;-88
2022/10/23 09:35:42;;;;;;;7.80;5.97;;;;;;;17.22;100.00;99112.63;2129894;83;21011;-88
2022/10/23 09:38:43;;;;;;;10.08;6.25;;;;;;;17.29;100.00;99109.44;2142033;83;21310;-89
2022/10/23 09:41:44;;;;;;;10.35;6.47;;;;;;;17.32;100.00;99109.00;2145997;82;21058;-88
2022/10/23 09:44:45;;;;;;;8.38;6.35;;;;;;;17.31;100.00;99121.94;2158867;82;21074;-90
2022/10/23 09:47:46;;;;;;;9.63;6.10;;;;;;;17.29;100.00;99113.41;2158644;82;21494;-88
2022/10/23 09:50:47;;;;;;;9.58;7.28;;;;;;;17.25;100.00;99107.41;2158803;82;21373;-89
2022/10/23 09:53:48;;;;;;;8.63;7.55;;;;;;;17.20;100.00;99108.06;2158878;82;20974;-88
2022/10/23 09:56:48;;;;;;;10.95;7.90;;;;;;;17.17;100.00;99109.80;2158987;82;20959;-89
2022/10/23 09:59:49;;;;;;;11.53;6.90;;;;;;;17.21;100.00;99102.27;2158719;82;21042;-89
2022/10/23 10:02:50;;;;;;;17.23;11.68;;;;;;;17.23;100.00;99104.17;2159088;82;21500;-88
2022/10/23 10:05:51;;;;;;;10.82;9.73;;;;;;;17.24;100.00;99103.96;2120733;84;20949;-89
2022/10/23 10:08:51;;;;;;;8.98;7.83;;;;;;;17.24;100.00;99103.15;2159177;82;21057;-87
2022/10/23 10:11:52;;;;;;;8.00;7.20;;;;;;;17.22;100.00;99102.56;2158563;82;21086;-88
2022/10/23 10:14:53;;;;;;;10.35;7.55;;;;;;;17.21;100.00;99096.97;2159060;82;21512;-88
2022/10/23 10:17:54;;;;;;;10.03;8.23;;;;;;;17.21;100.00;99089.03;2158883;82;21549;-89
2022/10/23 10:20:55;;;;;;;9.33;7.00;;;;;;;17.19;100.00;99086.61;2159002;82;21002;-90
2022/10/23 10:23:56;;;;;;;7.75;6.35;;;;;;;17.22;100.00;99092.78;2159245;82;21006;-88
2022/10/23 10:26:57;;;;;;;7.08;5.87;;;;;;;17.27;100.00;99090.80;2159101;81;21059;-90
2022/10/23 10:29:58;;;;;;;7.83;6.60;;;;;;;17.39;100.00;99085.15;2161176;82;21022;-89
2022/10/23 10:32:59;;;;;;;9.15;6.05;;;;;;;17.51;100.00;99088.72;2159412;81;20994;-89
2022/10/23 10:36:00;;;;;;;6.65;6.05;;;;;;;17.63;100.00;99094.12;2159068;81;21018;-88
2022/10/23 10:39:02;;;;;;;8.90;6.70;;;;;;;17.71;100.00;99096.53;2159152;82;20967;-89
2022/10/23 10:42:02;;;;;;;8.40;6.20;;;;;;;17.73;100.00;99093.66;2159106;81;21086;-90
2022/10/23 10:45:03;;;;;;;8.50;6.08;;;;;;;17.71;100.00;99093.08;2162316;82;20935;-87
2022/10/23 10:48:04;;;;;;;6.87;6.28;;;;;;;17.63;100.00;99100.22;2160370;82;20990;-89
2022/10/23 10:51:05;;;;;;;8.68;7.50;;;;;;;17.60;100.00;99095.88;2159198;82;21054;-88
2022/10/23 10:54:06;;;;;;;10.58;7.83;;;;;;;17.52;100.00;99093.49;2159130;82;21072;-90
2022/10/23 10:57:06;;;;;;;8.65;7.83;;;;;;;17.40;100.00;99087.28;2159052;82;21447;-90
2022/10/23 11:00:07;;;;;;;12.45;7.47;;;;;;;17.31;100.00;99090.70;2159202;81;20998;-89
2022/10/23 11:03:08;;;;;;;9.75;7.37;;;;;;;17.24;100.00;99091.24;2159430;81;20987;-89
2022/10/23 11:06:09;;;;;;;10.23;7.40;;;;;;;17.18;100.00;99086.80;2159590;81;20971;-88
2022/10/23 11:09:10;;;;;;;8.93;7.70;;;;;;;17.09;100.00;99090.71;2159344;82;21098;-88
2022/10/23 11:12:10;;;;;;;11.73;8.35;;;;;;;17.03;100.00;99090.55;2159030;82;20970;-90
2022/10/23 11:15:11;;;;;;;7.33;6.62;;;;;;;16.98;100.00;99082.43;2159004;82;21081;-88
2022/10/23 11:18:12;;;;;;;9.68;8.03;;;;;;;16.98;100.00;99079.78;2158963;81;21546;-88
2022/10/23 11:21:13;;;;;;;7.67;6.87;;;;;;;16.99;100.00;99077.95;2159115;82;20963;-88
2022/10/23 11:24:14;;;;;;;9.03;7.92;;;;;;;17.04;100.00;99069.69;2159107;82;21018;-89
2022/10/23 11:27:15;;;;;;;10.28;7.90;;;;;;;17.18;100.00;99060.33;2159392;81;21462;-89
2022/10/23 11:30:16;;;;;;;11.45;7.17;;;;;;;17.34;100.00;99057.17;2160397;82;21054;-87
2022/10/23 11:33:16;;;;;;;8.28;7.03;;;;;;;17.55;100.00;99055.99;2160349;82;21470;-87
2022/10/23 11:36:19;;;;;;;13.08;7.78;;;;;;;17.78;100.00;99048.30;2132172;82;21042;-88
2022/10/23 11:39:20;;;;;;;13.85;8.15;;;;;;;18.05;100.00;99043.56;2159103;82;21014;-91
2022/10/23 11:42:20;;;;;;;11.30;7.33;;;;;;;18.36;100.00;99037.30;2142483;81;21024;-88
2022/10/23 11:45:23;;;;;;;12.00;8.58;;;;;;;18.46;100.00;99029.62;2129651;83;22134;-89
2022/10/23 11:48:28;;;;;;;13.15;8.28;;;;;;;18.51;100.00;99032.14;2082911;85;21090;-88
2022/10/23 11:51:31;;;;;;;12.35;7.92;;;;;;;18.55;100.00;99031.97;2060247;85;21212;-89
2022/10/23 11:54:32;;;;;;;13.68;9.40;;;;;;;18.58;100.00;99028.89;2083298;85;21094;-90
2022/10/23 11:57:33;;;;;;;12.45;8.43;;;;;;;18.61;100.00;99027.92;2116509;84;20987;-90
2022/10/23 12:00:33;;;;;;;11.65;7.67;;;;;;;18.59;100.00;99027.34;2116326;84;21084;-90
2022/10/23 12:03:34;;;;;;;12.33;8.90;;;;;;;18.57;100.00;99022.78;2117044;84;21605;-89
2022/10/23 12:06:35;;;;;;;9.10;8.03;;;;;;;18.53;100.00;99019.46;2117236;84;21027;-87
2022/10/23 12:09:36;;;;;;;10.25;7.78;;;;;;;18.54;100.00;99016.58;2117755;84;21110;-87
2022/10/23 12:12:39;;;;;;;11.53;7.53;;;;;;;18.59;100.00;99014.60;2116108;84;21039;-89
2022/10/23 12:15:41;;;;;;;10.63;7.53;;;;;;;18.76;100.00;99011.66;2116084;84;21586;-89
2022/10/23 12:18:41;;;;;;;10.68;8.00;;;;;;;18.88;100.00;99008.52;2116103;84;21003;-88
2022/10/23 12:21:42;;;;;;;11.35;8.73;;;;;;;18.94;100.00;99002.83;2116412;84;21614;-90
2022/10/23 12:24:43;;;;;;;11.18;7.90;;;;;;;18.95;100.00;98996.48;2116436;84;21062;-86
2022/10/23 12:27:44;;;;;;;10.90;7.67;;;;;;;18.99;100.00;98997.64;2116524;84;21034;-89
2022/10/23 12:30:45;;;;;;;9.10;7.70;;;;;;;19.01;100.00;98989.73;2117402;83;21003;-89
2022/10/23 12:33:45;;;;;;;7.62;6.80;;;;;;;18.93;100.00;98990.61;2118527;84;21067;-88
2022/10/23 12:36:46;;;;;;;6.58;5.90;;;;;;;18.79;100.00;98989.16;2116523;84;21526;-89
2022/10/23 12:39:47;;;;;;;10.30;7.92;;;;;;;18.65;100.00;98981.89;2116326;83;21059;-90
2022/10/23 12:42:48;;;;;;;6.50;5.90;;;;;;;18.53;100.00;98980.50;2121063;84;21606;-88
2022/10/23 12:45:49;;;;;;;6.65;5.95;;;;;;;18.42;100.00;98973.31;2137254;83;20975;-90
2022/10/23 12:48:50;;;;;;;8.35;6.05;;;;;;;18.28;100.00;98985.09;2161711;82;21509;-89
2022/10/23 12:51:50;;;;;;;7.62;6.10;;;;;;;18.12;100.00;98989.17;2134087;83;21032;-89
2022/10/23 12:54:51;;;;;;;9.58;7.80;;;;;;;17.97;100.00;98983.42;2134033;83;21570;-90
2022/10/23 12:57:52;;;;;;;10.38;7.47;;;;;;;17.84;100.00;98974.60;2133791;83;21034;-89
2022/10/23 13:00:53;;;;;;;12.30;7.67;;;;;;;17.74;100.00;98972.98;2133987;83;20940;-90
2022/10/23 13:03:53;;;;;;;8.80;7.08;;;;;;;17.66;100.00;98966.61;2134044;83;21011;-89
2022/10/23 13:06:54;;;;;;;11.45;8.28;;;;;;;17.59;100.00;98965.86;2134381;83;21003;-87
2022/10/23 13:09:55;;;;;;;9.83;8.75;;;;;;;17.51;100.00;98962.16;2134960;83;21031;-88
2022/10/23 13:12:56;;;;;;;8.03;7.22;;;;;;;17.44;100.00;98967.52;2134038;83;21019;-88
2022/10/23 13:15:57;;;;;;;10.72;8.00;;;;;;;17.40;100.00;98969.50;2133900;83;20976;-88
2022/10/23 13:18:57;;;;;;;9.60;8.40;;;;;;;17.35;100.00;98968.30;2133855;83;20987;-88
2022/10/23 13:21:58;;;;;;;12.33;10.13;;;;;;;17.29;100.00;98967.86;2133712;83;20941;-89
2022/10/23 13:24:59;;;;;;;14.93;10.10;;;;;;;17.25;100.00;98969.30;2133970;83;20968;-86
2022/10/23 13:28:00;;;;;;;11.43;8.83;;;;;;;17.21;100.00;98966.00;2133823;83;21066;-88
2022/10/23 13:31:00;;;;;;;14.90;8.70;;;;;;;17.15;100.00;98968.98;2133728;83;20996;-90
2022/10/23 13:34:01;;;;;;;13.55;9.43;;;;;;;17.11;100.00;98975.74;2133781;83;21039;-88
2022/10/23 13:37:02;;;;;;;14.33;10.53;;;;;;;17.09;100.00;98979.09;2133751;83;21499;-89
2022/10/23 13:40:03;;;;;;;12.80;10.00;;;;;;;17.07;100.00;98975.86;2133909;83;20940;-88
2022/10/23 13:43:03;;;;;;;13.75;11.08;;;;;;;17.02;100.00;98977.84;2127596;83;21012;-88
2022/10/23 13:46:04;;;;;;;12.33;9.68;;;;;;;16.97;100.00;98964.43;2146939;83;21473;-88
2022/10/23 13:49:05;;;;;;;9.23;7.85;;;;;;;16.95;100.00;98969.65;2158995;82;21022;-89